sensor_id;sensor_type;location;lat;lon;timestamp;P1;durP1;ratioP1;P2;durP2;ratioP2
83018;SDS011;72834;40.104;18.336;2023-12-14T00:01:37;27.23;;;5.15;;
83018;SDS011;72834;40.104;18.336;2023-12-14T00:04:05;24.70;;;4.35;;
83018;SDS011;72834;40.104;18.336;2023-12-14T00:06:32;31.10;;;5.47;;
83018;SDS011;72834;40.104;18.336;2023-12-14T00:08:58;21.20;;;3.53;;
83018;SDS011;72834;40.104;18.336;2023-12-14T00:11:25;32.80;;;4.43;;
83018;SDS011;72834;40.104;18.336;2023-12-14T00:13:52;22.30;;;4.60;;
83018;SDS011;72834;40.104;18.336;2023-12-14T00:16:18;30.75;;;4.90;;
83018;SDS011;72834;40.104;18.336;2023-12-14T00:18:44;29.20;;;5.60;;
83018;SDS011;72834;40.104;18.336;2023-12-14T00:21:11;22.58;;;4.00;;
83018;SDS011;72834;40.104;18.336;2023-12-14T00:23:38;28.98;;;5.18;;
83018;SDS011;72834;40.104;18.336;2023-12-14T00:26:04;35.20;;;5.63;;
83018;SDS011;72834;40.104;18.336;2023-12-14T00:28:30;26.30;;;5.30;;
83018;SDS011;72834;40.104;18.336;2023-12-14T00:30:57;29.15;;;4.90;;
83018;SDS011;72834;40.104;18.336;2023-12-14T00:33:23;30.48;;;5.07;;
83018;SDS011;72834;40.104;18.336;2023-12-14T00:35:50;24.85;;;5.35;;
83018;SDS011;72834;40.104;18.336;2023-12-14T00:38:17;25.15;;;4.25;;
83018;SDS011;72834;40.104;18.336;2023-12-14T00:40:44;26.50;;;4.65;;
83018;SDS011;72834;40.104;18.336;2023-12-14T00:43:10;25.58;;;4.47;;
83018;SDS011;72834;40.104;18.336;2023-12-14T00:45:36;19.00;;;3.50;;
83018;SDS011;72834;40.104;18.336;2023-12-14T00:48:03;30.80;;;4.18;;
83018;SDS011;72834;40.104;18.336;2023-12-14T00:50:30;23.38;;;4.28;;
83018;SDS011;72834;40.104;18.336;2023-12-14T00:52:56;21.00;;;3.92;;
83018;SDS011;72834;40.104;18.336;2023-12-14T00:55:22;25.10;;;4.65;;
83018;SDS011;72834;40.104;18.336;2023-12-14T00:57:49;27.67;;;4.80;;
83018;SDS011;72834;40.104;18.336;2023-12-14T01:00:16;32.05;;;5.05;;
83018;SDS011;72834;40.104;18.336;2023-12-14T01:02:42;25.75;;;4.57;;
83018;SDS011;72834;40.104;18.336;2023-12-14T01:05:09;16.80;;;3.85;;
83018;SDS011;72834;40.104;18.336;2023-12-14T01:07:35;18.48;;;3.65;;
83018;SDS011;72834;40.104;18.336;2023-12-14T01:10:02;21.33;;;3.38;;
83018;SDS011;72834;40.104;18.336;2023-12-14T01:12:30;28.05;;;4.45;;
83018;SDS011;72834;40.104;18.336;2023-12-14T01:14:57;22.38;;;4.35;;
83018;SDS011;72834;40.104;18.336;2023-12-14T01:17:23;23.80;;;4.20;;
83018;SDS011;72834;40.104;18.336;2023-12-14T01:19:50;22.35;;;3.70;;
83018;SDS011;72834;40.104;18.336;2023-12-14T01:22:16;20.48;;;3.63;;
83018;SDS011;72834;40.104;18.336;2023-12-14T01:24:43;19.45;;;3.30;;
83018;SDS011;72834;40.104;18.336;2023-12-14T01:27:09;18.77;;;5.32;;
83018;SDS011;72834;40.104;18.336;2023-12-14T01:29:39;18.25;;;4.18;;
83018;SDS011;72834;40.104;18.336;2023-12-14T01:32:06;31.75;;;5.28;;
83018;SDS011;72834;40.104;18.336;2023-12-14T01:34:32;23.83;;;4.30;;
83018;SDS011;72834;40.104;18.336;2023-12-14T01:36:59;21.60;;;3.63;;
83018;SDS011;72834;40.104;18.336;2023-12-14T01:39:25;25.75;;;4.28;;
83018;SDS011;72834;40.104;18.336;2023-12-14T01:41:52;27.40;;;4.65;;
83018;SDS011;72834;40.104;18.336;2023-12-14T01:44:18;24.30;;;4.50;;
83018;SDS011;72834;40.104;18.336;2023-12-14T01:46:44;27.05;;;3.97;;
83018;SDS011;72834;40.104;18.336;2023-12-14T01:49:11;21.33;;;4.38;;
83018;SDS011;72834;40.104;18.336;2023-12-14T01:51:37;25.77;;;4.47;;
83018;SDS011;72834;40.104;18.336;2023-12-14T01:54:04;26.52;;;4.60;;
83018;SDS011;72834;40.104;18.336;2023-12-14T01:56:30;25.40;;;4.25;;
83018;SDS011;72834;40.104;18.336;2023-12-14T01:58:57;31.27;;;4.43;;
83018;SDS011;72834;40.104;18.336;2023-12-14T02:01:45;29.10;;;4.60;;
83018;SDS011;72834;40.104;18.336;2023-12-14T02:04:11;14.93;;;2.97;;
83018;SDS011;72834;40.104;18.336;2023-12-14T02:06:39;23.17;;;3.85;;
83018;SDS011;72834;40.104;18.336;2023-12-14T02:09:06;21.85;;;4.75;;
83018;SDS011;72834;40.104;18.336;2023-12-14T02:11:32;19.20;;;4.45;;
83018;SDS011;72834;40.104;18.336;2023-12-14T02:14:02;26.88;;;4.53;;
83018;SDS011;72834;40.104;18.336;2023-12-14T02:16:30;18.98;;;3.97;;
83018;SDS011;72834;40.104;18.336;2023-12-14T02:18:57;23.98;;;4.22;;
83018;SDS011;72834;40.104;18.336;2023-12-14T02:21:24;23.15;;;3.55;;
83018;SDS011;72834;40.104;18.336;2023-12-14T02:23:51;14.02;;;3.20;;
83018;SDS011;72834;40.104;18.336;2023-12-14T02:26:17;21.27;;;3.53;;
83018;SDS011;72834;40.104;18.336;2023-12-14T02:28:43;21.02;;;3.70;;
83018;SDS011;72834;40.104;18.336;2023-12-14T02:31:10;19.48;;;3.85;;
83018;SDS011;72834;40.104;18.336;2023-12-14T02:33:37;32.05;;;3.92;;
83018;SDS011;72834;40.104;18.336;2023-12-14T02:36:03;19.90;;;3.55;;
83018;SDS011;72834;40.104;18.336;2023-12-14T02:38:30;23.88;;;3.78;;
83018;SDS011;72834;40.104;18.336;2023-12-14T02:40:57;29.02;;;3.85;;
83018;SDS011;72834;40.104;18.336;2023-12-14T02:43:24;30.98;;;6.15;;
83018;SDS011;72834;40.104;18.336;2023-12-14T02:45:50;21.33;;;3.50;;
83018;SDS011;72834;40.104;18.336;2023-12-14T02:48:17;30.05;;;3.72;;
83018;SDS011;72834;40.104;18.336;2023-12-14T02:50:43;18.85;;;4.18;;
83018;SDS011;72834;40.104;18.336;2023-12-14T02:53:10;25.17;;;4.10;;
83018;SDS011;72834;40.104;18.336;2023-12-14T02:55:36;18.30;;;3.28;;
83018;SDS011;72834;40.104;18.336;2023-12-14T02:58:03;21.17;;;4.22;;
83018;SDS011;72834;40.104;18.336;2023-12-14T03:00:29;21.45;;;3.65;;
83018;SDS011;72834;40.104;18.336;2023-12-14T03:02:56;25.77;;;4.45;;
83018;SDS011;72834;40.104;18.336;2023-12-14T03:05:22;24.88;;;4.60;;
83018;SDS011;72834;40.104;18.336;2023-12-14T03:07:49;24.65;;;3.30;;
83018;SDS011;72834;40.104;18.336;2023-12-14T03:10:15;19.67;;;3.38;;
83018;SDS011;72834;40.104;18.336;2023-12-14T03:12:42;20.33;;;3.83;;
83018;SDS011;72834;40.104;18.336;2023-12-14T03:15:08;23.48;;;4.22;;
83018;SDS011;72834;40.104;18.336;2023-12-14T03:17:35;23.80;;;3.45;;
83018;SDS011;72834;40.104;18.336;2023-12-14T03:20:02;24.25;;;3.95;;
83018;SDS011;72834;40.104;18.336;2023-12-14T03:22:31;26.80;;;3.58;;
83018;SDS011;72834;40.104;18.336;2023-12-14T03:24:58;25.38;;;4.85;;
83018;SDS011;72834;40.104;18.336;2023-12-14T03:27:24;18.30;;;4.25;;
83018;SDS011;72834;40.104;18.336;2023-12-14T03:29:50;32.10;;;3.67;;
83018;SDS011;72834;40.104;18.336;2023-12-14T03:32:17;30.55;;;4.80;;
83018;SDS011;72834;40.104;18.336;2023-12-14T03:34:43;28.75;;;4.72;;
83018;SDS011;72834;40.104;18.336;2023-12-14T03:37:10;26.90;;;4.80;;
83018;SDS011;72834;40.104;18.336;2023-12-14T03:39:36;27.70;;;4.35;;
83018;SDS011;72834;40.104;18.336;2023-12-14T03:42:03;27.33;;;4.07;;
83018;SDS011;72834;40.104;18.336;2023-12-14T03:44:29;29.63;;;4.72;;
83018;SDS011;72834;40.104;18.336;2023-12-14T03:46:56;27.00;;;4.07;;
83018;SDS011;72834;40.104;18.336;2023-12-14T03:49:23;18.73;;;3.60;;
83018;SDS011;72834;40.104;18.336;2023-12-14T03:51:50;29.13;;;4.20;;
83018;SDS011;72834;40.104;18.336;2023-12-14T03:54:16;30.38;;;5.20;;
83018;SDS011;72834;40.104;18.336;2023-12-14T03:56:43;24.00;;;4.68;;
83018;SDS011;72834;40.104;18.336;2023-12-14T03:59:09;24.75;;;3.92;;
83018;SDS011;72834;40.104;18.336;2023-12-14T04:01:35;21.27;;;4.38;;
83018;SDS011;72834;40.104;18.336;2023-12-14T04:04:05;31.17;;;4.22;;
83018;SDS011;72834;40.104;18.336;2023-12-14T04:06:31;26.38;;;4.13;;
83018;SDS011;72834;40.104;18.336;2023-12-14T04:08:58;29.08;;;5.03;;
83018;SDS011;72834;40.104;18.336;2023-12-14T04:11:24;38.75;;;4.30;;
83018;SDS011;72834;40.104;18.336;2023-12-14T04:13:51;32.38;;;4.75;;
83018;SDS011;72834;40.104;18.336;2023-12-14T04:16:19;31.00;;;4.90;;
83018;SDS011;72834;40.104;18.336;2023-12-14T04:18:46;35.83;;;4.03;;
83018;SDS011;72834;40.104;18.336;2023-12-14T04:21:13;36.45;;;5.90;;
83018;SDS011;72834;40.104;18.336;2023-12-14T04:23:39;15.25;;;3.72;;
83018;SDS011;72834;40.104;18.336;2023-12-14T04:26:06;24.27;;;4.13;;
83018;SDS011;72834;40.104;18.336;2023-12-14T04:28:34;28.17;;;6.55;;
83018;SDS011;72834;40.104;18.336;2023-12-14T04:31:00;27.88;;;5.40;;
83018;SDS011;72834;40.104;18.336;2023-12-14T04:33:27;22.48;;;5.38;;
83018;SDS011;72834;40.104;18.336;2023-12-14T04:35:53;30.30;;;6.63;;
83018;SDS011;72834;40.104;18.336;2023-12-14T04:38:20;24.30;;;3.80;;
83018;SDS011;72834;40.104;18.336;2023-12-14T04:40:46;23.85;;;5.13;;
83018;SDS011;72834;40.104;18.336;2023-12-14T04:43:13;29.20;;;5.45;;
83018;SDS011;72834;40.104;18.336;2023-12-14T04:45:39;24.25;;;3.95;;
83018;SDS011;72834;40.104;18.336;2023-12-14T04:48:06;38.53;;;4.50;;
83018;SDS011;72834;40.104;18.336;2023-12-14T04:50:32;28.50;;;4.68;;
83018;SDS011;72834;40.104;18.336;2023-12-14T04:52:59;25.08;;;4.00;;
83018;SDS011;72834;40.104;18.336;2023-12-14T04:55:25;25.15;;;4.07;;
83018;SDS011;72834;40.104;18.336;2023-12-14T04:57:52;25.30;;;4.80;;
83018;SDS011;72834;40.104;18.336;2023-12-14T05:00:18;23.70;;;4.88;;
83018;SDS011;72834;40.104;18.336;2023-12-14T05:02:47;28.60;;;4.55;;
83018;SDS011;72834;40.104;18.336;2023-12-14T05:05:14;22.30;;;4.68;;
83018;SDS011;72834;40.104;18.336;2023-12-14T05:07:40;31.23;;;5.57;;
83018;SDS011;72834;40.104;18.336;2023-12-14T05:10:07;32.47;;;4.85;;
83018;SDS011;72834;40.104;18.336;2023-12-14T05:12:35;25.92;;;4.55;;
83018;SDS011;72834;40.104;18.336;2023-12-14T05:15:02;34.50;;;5.03;;
83018;SDS011;72834;40.104;18.336;2023-12-14T05:17:30;30.63;;;4.90;;
83018;SDS011;72834;40.104;18.336;2023-12-14T05:19:58;28.63;;;4.57;;
83018;SDS011;72834;40.104;18.336;2023-12-14T05:22:24;23.70;;;5.03;;
83018;SDS011;72834;40.104;18.336;2023-12-14T05:24:51;28.33;;;4.43;;
83018;SDS011;72834;40.104;18.336;2023-12-14T05:27:17;29.55;;;4.57;;
83018;SDS011;72834;40.104;18.336;2023-12-14T05:29:44;27.33;;;5.82;;
83018;SDS011;72834;40.104;18.336;2023-12-14T05:32:10;37.17;;;5.50;;
83018;SDS011;72834;40.104;18.336;2023-12-14T05:34:37;30.13;;;5.43;;
83018;SDS011;72834;40.104;18.336;2023-12-14T05:37:03;24.30;;;4.80;;
83018;SDS011;72834;40.104;18.336;2023-12-14T05:39:30;31.77;;;7.95;;
83018;SDS011;72834;40.104;18.336;2023-12-14T05:41:56;39.70;;;13.70;;
83018;SDS011;72834;40.104;18.336;2023-12-14T05:44:23;63.30;;;27.17;;
83018;SDS011;72834;40.104;18.336;2023-12-14T05:46:50;54.00;;;16.30;;
83018;SDS011;72834;40.104;18.336;2023-12-14T05:49:17;41.80;;;6.68;;
83018;SDS011;72834;40.104;18.336;2023-12-14T05:51:43;24.70;;;5.78;;
83018;SDS011;72834;40.104;18.336;2023-12-14T05:54:10;35.08;;;9.30;;
83018;SDS011;72834;40.104;18.336;2023-12-14T05:56:36;93.43;;;37.25;;
83018;SDS011;72834;40.104;18.336;2023-12-14T05:59:03;69.03;;;26.35;;
83018;SDS011;72834;40.104;18.336;2023-12-14T06:01:29;63.75;;;30.80;;
83018;SDS011;72834;40.104;18.336;2023-12-14T06:03:56;46.47;;;15.35;;
83018;SDS011;72834;40.104;18.336;2023-12-14T06:06:23;48.42;;;12.35;;
83018;SDS011;72834;40.104;18.336;2023-12-14T06:08:49;32.33;;;7.85;;
83018;SDS011;72834;40.104;18.336;2023-12-14T06:11:16;30.02;;;6.68;;
83018;SDS011;72834;40.104;18.336;2023-12-14T06:13:42;35.03;;;6.80;;
83018;SDS011;72834;40.104;18.336;2023-12-14T06:16:09;22.10;;;5.35;;
83018;SDS011;72834;40.104;18.336;2023-12-14T06:18:39;28.88;;;8.05;;
83018;SDS011;72834;40.104;18.336;2023-12-14T06:21:10;37.65;;;10.57;;
83018;SDS011;72834;40.104;18.336;2023-12-14T06:23:38;37.90;;;7.45;;
83018;SDS011;72834;40.104;18.336;2023-12-14T06:26:05;19.88;;;6.32;;
83018;SDS011;72834;40.104;18.336;2023-12-14T06:28:31;32.92;;;6.70;;
83018;SDS011;72834;40.104;18.336;2023-12-14T06:30:58;29.00;;;6.22;;
83018;SDS011;72834;40.104;18.336;2023-12-14T06:33:26;30.05;;;5.95;;
83018;SDS011;72834;40.104;18.336;2023-12-14T06:35:53;29.83;;;4.95;;
83018;SDS011;72834;40.104;18.336;2023-12-14T06:38:19;39.17;;;6.15;;
83018;SDS011;72834;40.104;18.336;2023-12-14T06:40:46;34.10;;;6.05;;
83018;SDS011;72834;40.104;18.336;2023-12-14T06:43:12;28.23;;;7.07;;
83018;SDS011;72834;40.104;18.336;2023-12-14T06:45:39;137.00;;;43.85;;
83018;SDS011;72834;40.104;18.336;2023-12-14T06:48:05;73.55;;;35.03;;
83018;SDS011;72834;40.104;18.336;2023-12-14T06:50:32;47.85;;;15.00;;
83018;SDS011;72834;40.104;18.336;2023-12-14T06:52:58;26.10;;;7.85;;
83018;SDS011;72834;40.104;18.336;2023-12-14T06:55:25;30.77;;;6.72;;
83018;SDS011;72834;40.104;18.336;2023-12-14T06:57:51;31.55;;;7.32;;
83018;SDS011;72834;40.104;18.336;2023-12-14T07:00:18;23.48;;;5.82;;
83018;SDS011;72834;40.104;18.336;2023-12-14T07:02:44;34.03;;;6.93;;
83018;SDS011;72834;40.104;18.336;2023-12-14T07:05:11;29.30;;;5.93;;
83018;SDS011;72834;40.104;18.336;2023-12-14T07:07:37;25.52;;;5.65;;
83018;SDS011;72834;40.104;18.336;2023-12-14T07:10:04;26.25;;;6.70;;
83018;SDS011;72834;40.104;18.336;2023-12-14T07:12:31;28.40;;;7.18;;
83018;SDS011;72834;40.104;18.336;2023-12-14T07:14:57;33.80;;;9.05;;
83018;SDS011;72834;40.104;18.336;2023-12-14T07:17:24;55.13;;;22.25;;
83018;SDS011;72834;40.104;18.336;2023-12-14T07:19:51;64.82;;;30.17;;
83018;SDS011;72834;40.104;18.336;2023-12-14T07:22:18;36.50;;;14.68;;
83018;SDS011;72834;40.104;18.336;2023-12-14T07:24:44;27.42;;;7.45;;
83018;SDS011;72834;40.104;18.336;2023-12-14T07:27:11;21.38;;;6.35;;
83018;SDS011;72834;40.104;18.336;2023-12-14T07:29:37;19.25;;;6.88;;
83018;SDS011;72834;40.104;18.336;2023-12-14T07:32:04;25.95;;;6.53;;
83018;SDS011;72834;40.104;18.336;2023-12-14T07:34:30;22.48;;;5.28;;
83018;SDS011;72834;40.104;18.336;2023-12-14T07:36:57;25.92;;;7.13;;
83018;SDS011;72834;40.104;18.336;2023-12-14T07:39:23;19.48;;;6.28;;
83018;SDS011;72834;40.104;18.336;2023-12-14T07:41:50;23.63;;;5.18;;
83018;SDS011;72834;40.104;18.336;2023-12-14T07:44:16;16.88;;;5.03;;
83018;SDS011;72834;40.104;18.336;2023-12-14T07:46:42;24.73;;;6.20;;
83018;SDS011;72834;40.104;18.336;2023-12-14T07:49:09;19.80;;;5.43;;
83018;SDS011;72834;40.104;18.336;2023-12-14T07:51:36;20.25;;;5.20;;
83018;SDS011;72834;40.104;18.336;2023-12-14T07:54:02;17.40;;;5.55;;
83018;SDS011;72834;40.104;18.336;2023-12-14T07:56:30;17.05;;;4.20;;
83018;SDS011;72834;40.104;18.336;2023-12-14T07:58:58;21.77;;;5.63;;
83018;SDS011;72834;40.104;18.336;2023-12-14T08:01:25;22.45;;;6.22;;
83018;SDS011;72834;40.104;18.336;2023-12-14T08:03:51;17.85;;;4.68;;
83018;SDS011;72834;40.104;18.336;2023-12-14T08:06:18;19.67;;;5.80;;
83018;SDS011;72834;40.104;18.336;2023-12-14T08:08:44;12.95;;;5.20;;
83018;SDS011;72834;40.104;18.336;2023-12-14T08:11:11;19.50;;;6.05;;
83018;SDS011;72834;40.104;18.336;2023-12-14T08:13:37;25.23;;;6.82;;
83018;SDS011;72834;40.104;18.336;2023-12-14T08:16:04;18.08;;;5.35;;
83018;SDS011;72834;40.104;18.336;2023-12-14T08:18:31;17.08;;;5.10;;
83018;SDS011;72834;40.104;18.336;2023-12-14T08:20:57;16.90;;;4.53;;
83018;SDS011;72834;40.104;18.336;2023-12-14T08:23:24;16.13;;;5.15;;
83018;SDS011;72834;40.104;18.336;2023-12-14T08:25:53;19.48;;;6.07;;
83018;SDS011;72834;40.104;18.336;2023-12-14T08:28:23;24.23;;;6.05;;
83018;SDS011;72834;40.104;18.336;2023-12-14T08:30:49;18.52;;;6.20;;
83018;SDS011;72834;40.104;18.336;2023-12-14T08:33:16;20.67;;;6.88;;
83018;SDS011;72834;40.104;18.336;2023-12-14T08:35:42;24.25;;;7.25;;
83018;SDS011;72834;40.104;18.336;2023-12-14T08:38:09;14.75;;;5.75;;
83018;SDS011;72834;40.104;18.336;2023-12-14T08:40:37;19.50;;;6.05;;
83018;SDS011;72834;40.104;18.336;2023-12-14T08:43:04;14.88;;;5.88;;
83018;SDS011;72834;40.104;18.336;2023-12-14T08:45:31;20.45;;;6.63;;
83018;SDS011;72834;40.104;18.336;2023-12-14T08:47:57;24.35;;;7.55;;
83018;SDS011;72834;40.104;18.336;2023-12-14T08:50:24;24.35;;;7.88;;
83018;SDS011;72834;40.104;18.336;2023-12-14T08:52:52;16.77;;;7.15;;
83018;SDS011;72834;40.104;18.336;2023-12-14T08:55:18;19.23;;;6.68;;
83018;SDS011;72834;40.104;18.336;2023-12-14T08:57:45;14.95;;;5.90;;
83018;SDS011;72834;40.104;18.336;2023-12-14T09:00:12;23.40;;;7.35;;
83018;SDS011;72834;40.104;18.336;2023-12-14T09:02:39;25.85;;;7.20;;
83018;SDS011;72834;40.104;18.336;2023-12-14T09:05:05;21.30;;;7.18;;
83018;SDS011;72834;40.104;18.336;2023-12-14T09:07:32;16.65;;;6.80;;
83018;SDS011;72834;40.104;18.336;2023-12-14T09:09:59;21.60;;;7.20;;
83018;SDS011;72834;40.104;18.336;2023-12-14T09:12:25;16.60;;;6.13;;
83018;SDS011;72834;40.104;18.336;2023-12-14T09:14:52;15.32;;;6.88;;
83018;SDS011;72834;40.104;18.336;2023-12-14T09:17:18;15.70;;;6.82;;
83018;SDS011;72834;40.104;18.336;2023-12-14T09:19:45;20.30;;;7.85;;
83018;SDS011;72834;40.104;18.336;2023-12-14T09:22:11;26.90;;;10.63;;
83018;SDS011;72834;40.104;18.336;2023-12-14T09:24:38;28.58;;;12.52;;
83018;SDS011;72834;40.104;18.336;2023-12-14T09:27:04;25.10;;;9.90;;
83018;SDS011;72834;40.104;18.336;2023-12-14T09:29:31;15.55;;;8.55;;
83018;SDS011;72834;40.104;18.336;2023-12-14T09:31:57;27.38;;;11.15;;
83018;SDS011;72834;40.104;18.336;2023-12-14T09:34:24;23.98;;;13.25;;
83018;SDS011;72834;40.104;18.336;2023-12-14T09:36:50;26.33;;;12.68;;
83018;SDS011;72834;40.104;18.336;2023-12-14T09:39:17;25.95;;;10.35;;
83018;SDS011;72834;40.104;18.336;2023-12-14T09:41:47;20.65;;;9.45;;
83018;SDS011;72834;40.104;18.336;2023-12-14T09:44:13;17.50;;;7.15;;
83018;SDS011;72834;40.104;18.336;2023-12-14T09:46:40;14.25;;;6.70;;
83018;SDS011;72834;40.104;18.336;2023-12-14T09:49:15;25.20;;;7.28;;
83018;SDS011;72834;40.104;18.336;2023-12-14T09:51:43;18.48;;;8.15;;
83018;SDS011;72834;40.104;18.336;2023-12-14T09:54:10;19.95;;;8.65;;
83018;SDS011;72834;40.104;18.336;2023-12-14T09:56:44;25.20;;;9.15;;
83018;SDS011;72834;40.104;18.336;2023-12-14T09:59:14;33.83;;;11.48;;
83018;SDS011;72834;40.104;18.336;2023-12-14T10:01:42;31.85;;;11.23;;
83018;SDS011;72834;40.104;18.336;2023-12-14T10:04:09;32.95;;;12.00;;
83018;SDS011;72834;40.104;18.336;2023-12-14T10:06:41;33.83;;;14.00;;
83018;SDS011;72834;40.104;18.336;2023-12-14T10:09:09;35.05;;;12.77;;
83018;SDS011;72834;40.104;18.336;2023-12-14T10:11:39;28.30;;;11.85;;
83018;SDS011;72834;40.104;18.336;2023-12-14T10:14:17;60.22;;;26.02;;
83018;SDS011;72834;40.104;18.336;2023-12-14T10:16:45;39.78;;;22.13;;
83018;SDS011;72834;40.104;18.336;2023-12-14T10:19:11;40.65;;;19.35;;
83018;SDS011;72834;40.104;18.336;2023-12-14T10:21:38;30.33;;;12.30;;
83018;SDS011;72834;40.104;18.336;2023-12-14T10:24:04;29.00;;;13.38;;
83018;SDS011;72834;40.104;18.336;2023-12-14T10:26:31;29.10;;;12.75;;
83018;SDS011;72834;40.104;18.336;2023-12-14T10:28:58;30.77;;;11.95;;
83018;SDS011;72834;40.104;18.336;2023-12-14T10:31:25;25.33;;;11.65;;
83018;SDS011;72834;40.104;18.336;2023-12-14T10:33:52;28.13;;;10.02;;
83018;SDS011;72834;40.104;18.336;2023-12-14T10:36:19;24.63;;;10.75;;
83018;SDS011;72834;40.104;18.336;2023-12-14T10:38:48;22.33;;;10.52;;
83018;SDS011;72834;40.104;18.336;2023-12-14T10:41:22;24.73;;;10.25;;
83018;SDS011;72834;40.104;18.336;2023-12-14T10:43:50;27.65;;;9.25;;
83018;SDS011;72834;40.104;18.336;2023-12-14T10:46:21;26.58;;;8.85;;
83018;SDS011;72834;40.104;18.336;2023-12-14T10:48:51;26.35;;;7.88;;
83018;SDS011;72834;40.104;18.336;2023-12-14T10:51:19;28.15;;;8.20;;
83018;SDS011;72834;40.104;18.336;2023-12-14T10:53:47;24.00;;;7.88;;
83018;SDS011;72834;40.104;18.336;2023-12-14T10:56:15;24.33;;;9.43;;
83018;SDS011;72834;40.104;18.336;2023-12-14T11:01:20;31.50;;;10.27;;
83018;SDS011;72834;40.104;18.336;2023-12-14T11:03:50;25.58;;;9.63;;
83018;SDS011;72834;40.104;18.336;2023-12-14T11:06:31;25.50;;;10.02;;
83018;SDS011;72834;40.104;18.336;2023-12-14T11:09:03;30.58;;;9.15;;
83018;SDS011;72834;40.104;18.336;2023-12-14T11:11:42;22.83;;;7.28;;
83018;SDS011;72834;40.104;18.336;2023-12-14T11:14:19;19.20;;;8.38;;
83018;SDS011;72834;40.104;18.336;2023-12-14T11:16:50;20.85;;;7.60;;
83018;SDS011;72834;40.104;18.336;2023-12-14T11:26:49;13.50;;;6.30;;
83018;SDS011;72834;40.104;18.336;2023-12-14T11:29:19;20.27;;;7.50;;
83018;SDS011;72834;40.104;18.336;2023-12-14T11:31:47;13.75;;;4.35;;
83018;SDS011;72834;40.104;18.336;2023-12-14T11:34:17;15.15;;;4.85;;
83018;SDS011;72834;40.104;18.336;2023-12-14T11:36:43;13.80;;;4.65;;
83018;SDS011;72834;40.104;18.336;2023-12-14T11:39:11;14.90;;;5.78;;
83018;SDS011;72834;40.104;18.336;2023-12-14T11:41:38;11.45;;;4.72;;
83018;SDS011;72834;40.104;18.336;2023-12-14T11:44:05;9.10;;;2.95;;
83018;SDS011;72834;40.104;18.336;2023-12-14T11:46:32;11.75;;;2.60;;
83018;SDS011;72834;40.104;18.336;2023-12-14T11:48:59;12.20;;;3.00;;
83018;SDS011;72834;40.104;18.336;2023-12-14T11:51:29;13.73;;;3.45;;
83018;SDS011;72834;40.104;18.336;2023-12-14T11:53:56;9.77;;;3.35;;
83018;SDS011;72834;40.104;18.336;2023-12-14T11:56:28;8.95;;;3.53;;
83018;SDS011;72834;40.104;18.336;2023-12-14T11:58:56;8.45;;;2.55;;
83018;SDS011;72834;40.104;18.336;2023-12-14T12:01:23;8.82;;;3.78;;
83018;SDS011;72834;40.104;18.336;2023-12-14T12:03:51;8.32;;;2.78;;
83018;SDS011;72834;40.104;18.336;2023-12-14T12:06:22;8.43;;;2.90;;
83018;SDS011;72834;40.104;18.336;2023-12-14T12:08:59;8.68;;;3.17;;
83018;SDS011;72834;40.104;18.336;2023-12-14T12:11:26;10.68;;;3.60;;
83018;SDS011;72834;40.104;18.336;2023-12-14T12:13:53;14.25;;;3.13;;
83018;SDS011;72834;40.104;18.336;2023-12-14T12:16:21;7.90;;;2.40;;
83018;SDS011;72834;40.104;18.336;2023-12-14T12:18:48;9.23;;;4.25;;
83018;SDS011;72834;40.104;18.336;2023-12-14T12:21:18;8.43;;;2.65;;
83018;SDS011;72834;40.104;18.336;2023-12-14T12:23:44;16.10;;;6.30;;
83018;SDS011;72834;40.104;18.336;2023-12-14T12:26:11;8.25;;;2.83;;
83018;SDS011;72834;40.104;18.336;2023-12-14T12:28:37;8.60;;;2.88;;
83018;SDS011;72834;40.104;18.336;2023-12-14T12:31:04;13.90;;;3.38;;
83018;SDS011;72834;40.104;18.336;2023-12-14T12:33:30;10.63;;;3.63;;
83018;SDS011;72834;40.104;18.336;2023-12-14T12:36:03;8.10;;;3.13;;
83018;SDS011;72834;40.104;18.336;2023-12-14T12:38:31;7.55;;;3.38;;
83018;SDS011;72834;40.104;18.336;2023-12-14T12:40:57;6.65;;;3.30;;
83018;SDS011;72834;40.104;18.336;2023-12-14T12:43:26;8.25;;;2.88;;
83018;SDS011;72834;40.104;18.336;2023-12-14T12:45:52;7.07;;;2.45;;
83018;SDS011;72834;40.104;18.336;2023-12-14T12:48:19;7.47;;;2.78;;
83018;SDS011;72834;40.104;18.336;2023-12-14T12:50:45;8.32;;;2.70;;
83018;SDS011;72834;40.104;18.336;2023-12-14T12:53:12;4.95;;;2.35;;
83018;SDS011;72834;40.104;18.336;2023-12-14T12:55:38;8.98;;;3.22;;
83018;SDS011;72834;40.104;18.336;2023-12-14T12:58:04;9.30;;;3.55;;
83018;SDS011;72834;40.104;18.336;2023-12-14T13:00:32;7.88;;;2.33;;
83018;SDS011;72834;40.104;18.336;2023-12-14T13:03:01;7.90;;;2.65;;
83018;SDS011;72834;40.104;18.336;2023-12-14T13:05:28;10.30;;;4.35;;
83018;SDS011;72834;40.104;18.336;2023-12-14T13:07:56;7.20;;;3.10;;
83018;SDS011;72834;40.104;18.336;2023-12-14T13:10:23;11.00;;;4.78;;
83018;SDS011;72834;40.104;18.336;2023-12-14T13:12:53;7.22;;;3.40;;
83018;SDS011;72834;40.104;18.336;2023-12-14T13:15:21;8.52;;;2.97;;
83018;SDS011;72834;40.104;18.336;2023-12-14T13:17:53;7.75;;;3.35;;
83018;SDS011;72834;40.104;18.336;2023-12-14T13:20:19;9.85;;;3.58;;
83018;SDS011;72834;40.104;18.336;2023-12-14T13:22:46;8.63;;;3.30;;
83018;SDS011;72834;40.104;18.336;2023-12-14T13:25:12;11.43;;;4.25;;
83018;SDS011;72834;40.104;18.336;2023-12-14T13:27:39;5.90;;;3.03;;
83018;SDS011;72834;40.104;18.336;2023-12-14T13:30:06;5.78;;;2.85;;
83018;SDS011;72834;40.104;18.336;2023-12-14T13:32:34;7.53;;;3.15;;
83018;SDS011;72834;40.104;18.336;2023-12-14T13:35:01;4.63;;;1.85;;
83018;SDS011;72834;40.104;18.336;2023-12-14T13:37:28;9.38;;;3.97;;
83018;SDS011;72834;40.104;18.336;2023-12-14T13:39:55;6.30;;;2.58;;
83018;SDS011;72834;40.104;18.336;2023-12-14T13:42:22;3.63;;;1.77;;
83018;SDS011;72834;40.104;18.336;2023-12-14T13:44:48;4.10;;;1.70;;
83018;SDS011;72834;40.104;18.336;2023-12-14T13:47:15;3.05;;;1.60;;
83018;SDS011;72834;40.104;18.336;2023-12-14T13:49:42;2.83;;;1.40;;
83018;SDS011;72834;40.104;18.336;2023-12-14T13:52:09;3.00;;;1.25;;
83018;SDS011;72834;40.104;18.336;2023-12-14T13:54:35;2.47;;;1.00;;
83018;SDS011;72834;40.104;18.336;2023-12-14T13:57:02;5.28;;;2.08;;
83018;SDS011;72834;40.104;18.336;2023-12-14T13:59:29;6.10;;;2.20;;
83018;SDS011;72834;40.104;18.336;2023-12-14T14:01:56;4.78;;;1.90;;
83018;SDS011;72834;40.104;18.336;2023-12-14T14:04:22;5.03;;;2.00;;
83018;SDS011;72834;40.104;18.336;2023-12-14T14:06:49;5.30;;;2.15;;
83018;SDS011;72834;40.104;18.336;2023-12-14T14:09:15;6.97;;;2.42;;
83018;SDS011;72834;40.104;18.336;2023-12-14T14:11:41;4.65;;;2.28;;
83018;SDS011;72834;40.104;18.336;2023-12-14T14:14:12;7.88;;;3.33;;
83018;SDS011;72834;40.104;18.336;2023-12-14T14:16:40;3.83;;;2.10;;
83018;SDS011;72834;40.104;18.336;2023-12-14T14:19:07;7.13;;;4.03;;
83018;SDS011;72834;40.104;18.336;2023-12-14T14:21:33;6.55;;;3.22;;
83018;SDS011;72834;40.104;18.336;2023-12-14T14:24:00;8.00;;;3.47;;
83018;SDS011;72834;40.104;18.336;2023-12-14T14:26:26;7.05;;;3.88;;
83018;SDS011;72834;40.104;18.336;2023-12-14T14:28:52;9.65;;;5.43;;
83018;SDS011;72834;40.104;18.336;2023-12-14T14:31:21;11.05;;;5.78;;